createdAt,value
2019-01-09T00:01:22.407Z,97471.57
2019-01-09T00:04:09.755Z,97477.31
2019-01-09T00:06:56.999Z,97466.57
2019-01-09T00:09:44.115Z,97461.02
2019-01-09T00:12:31.279Z,97464.94
2019-01-09T00:15:18.523Z,97471.81
2019-01-09T00:18:06.074Z,97476.05
2019-01-09T00:20:53.283Z,97467.80
2019-01-09T00:23:40.280Z,97465.14
2019-01-09T00:26:27.975Z,97474.30
2019-01-09T00:29:15.162Z,97479.24
2019-01-09T00:32:02.607Z,97476.30
2019-01-09T00:34:50.002Z,97479.88
2019-01-09T00:37:37.410Z,97480.97
2019-01-09T00:40:24.864Z,97483.29
2019-01-09T00:43:12.029Z,97496.27
2019-01-09T00:45:59.568Z,97483.42
2019-01-09T00:48:46.746Z,97492.81
2019-01-09T00:51:33.687Z,97495.09
2019-01-09T00:54:20.903Z,97507.96
2019-01-09T00:57:08.439Z,97501.39
2019-01-09T00:59:55.598Z,97502.15
2019-01-09T01:03:02.162Z,97509.17
2019-01-09T01:06:19.369Z,97518.39
2019-01-09T01:09:36.771Z,97513.09
2019-01-09T01:12:43.121Z,97512.20
2019-01-09T01:15:50.023Z,97512.86
2019-01-09T01:19:01.148Z,97511.47
2019-01-09T01:21:51.372Z,97512.28
2019-01-09T01:24:41.475Z,97519.80
2019-01-09T01:27:31.759Z,97519.20
2019-01-09T01:30:38.625Z,97508.03
2019-01-09T01:33:41.199Z,97497.24
2019-01-09T01:36:34.419Z,97499.84
2019-01-09T01:39:51.729Z,97496.29
2019-01-09T01:42:44.983Z,97503.86
2019-01-09T01:45:53.310Z,97496.83
2019-01-09T01:49:01.363Z,97505.31
2019-01-09T01:52:03.471Z,97507.11
2019-01-09T01:55:08.344Z,97503.58
2019-01-09T01:58:10.400Z,97508.98
2019-01-09T02:01:20.491Z,97505.41
2019-01-09T02:04:31.614Z,97506.83
2019-01-09T02:07:37.057Z,97516.77
2019-01-09T02:10:53.177Z,97524.41
2019-01-09T02:13:55.434Z,97514.94
2019-01-09T02:17:03.611Z,97509.55
2019-01-09T02:19:56.319Z,97511.34
2019-01-09T02:23:01.341Z,97505.94
2019-01-09T02:25:54.170Z,97511.16
2019-01-09T02:28:56.431Z,97510.59
2019-01-09T02:31:52.544Z,97521.68
2019-01-09T02:34:39.620Z,97517.04
2019-01-09T02:37:27.378Z,97524.55
2019-01-09T02:40:14.911Z,97530.77
2019-01-09T02:43:01.937Z,97522.23
2019-01-09T02:45:49.291Z,97517.64
2019-01-09T02:48:36.507Z,97517.69
2019-01-09T02:51:23.634Z,97523.87
2019-01-09T02:54:10.659Z,97523.55
2019-01-09T02:56:57.896Z,97520.45
2019-01-09T02:59:45.024Z,97526.80
2019-01-09T03:02:32.085Z,97524.84
2019-01-09T03:05:19.595Z,97532.22
2019-01-09T03:08:07.005Z,97526.12
2019-01-09T03:10:54.346Z,97533.67
2019-01-09T03:13:41.695Z,97527.50
2019-01-09T03:16:28.913Z,97521.80
2019-01-09T03:19:16.151Z,97528.62
2019-01-09T03:22:03.552Z,97528.62
2019-01-09T03:24:50.857Z,97533.80
2019-01-09T03:27:38.265Z,97534.91
2019-01-09T03:30:25.518Z,97530.06
2019-01-09T03:33:12.981Z,97533.03
2019-01-09T03:36:00.314Z,97521.63
2019-01-09T03:38:47.729Z,97525.17
2019-01-09T03:41:34.934Z,97524.05
2019-01-09T03:44:22.217Z,97524.53
2019-01-09T03:47:09.357Z,97524.84
2019-01-09T03:49:56.782Z,97517.66
2019-01-09T03:52:43.872Z,97530.89
2019-01-09T03:55:31.287Z,97532.47
2019-01-09T03:58:18.413Z,97527.42
2019-01-09T04:01:05.835Z,97544.73
2019-01-09T04:03:52.700Z,97533.19
2019-01-09T04:06:42.026Z,97532.87
2019-01-09T04:09:28.844Z,97532.84
2019-01-09T04:12:16.066Z,97524.25
2019-01-09T04:15:04.886Z,97531.42
2019-01-09T04:17:52.179Z,97537.27
2019-01-09T04:20:39.194Z,97539.87
2019-01-09T04:23:26.300Z,97538.90
2019-01-09T04:26:13.453Z,97554.32
2019-01-09T04:29:00.769Z,97546.19
2019-01-09T04:31:47.831Z,97543.27
2019-01-09T04:34:35.309Z,97537.75
2019-01-09T04:37:22.618Z,97548.49
2019-01-09T04:40:09.581Z,97545.07
2019-01-09T04:42:57.034Z,97552.20
2019-01-09T04:45:44.463Z,97554.80
2019-01-09T04:48:31.826Z,97550.52
2019-01-09T04:51:18.909Z,97549.80
2019-01-09T04:54:06.094Z,97554.78
2019-01-09T04:56:53.419Z,97551.58
2019-01-09T04:59:40.449Z,97554.69
2019-01-09T05:02:27.816Z,97555.51
2019-01-09T05:05:15.076Z,97547.36
2019-01-09T05:08:02.540Z,97551.91
2019-01-09T05:10:49.530Z,97556.80
2019-01-09T05:13:36.620Z,97557.77
2019-01-09T05:16:23.727Z,97566.23
2019-01-09T05:19:10.759Z,97563.72
2019-01-09T05:21:58.003Z,97569.50
2019-01-09T05:24:45.704Z,97572.11
2019-01-09T05:27:33.189Z,97573.03
2019-01-09T05:30:20.053Z,97581.72
2019-01-09T05:33:07.380Z,97575.01
2019-01-09T05:35:54.493Z,97586.15
2019-01-09T05:38:41.591Z,97576.73
2019-01-09T05:41:29.022Z,97584.14
2019-01-09T05:44:16.337Z,97590.72
2019-01-09T05:47:03.503Z,97591.61
2019-01-09T05:49:50.960Z,97582.70
2019-01-09T05:52:38.075Z,97584.83
2019-01-09T05:55:25.211Z,97592.80
2019-01-09T05:58:12.369Z,97597.19
2019-01-09T06:00:59.372Z,97595.09
2019-01-09T06:03:46.395Z,97595.98
2019-01-09T06:06:33.321Z,97596.19
2019-01-09T06:09:20.411Z,97603.73
2019-01-09T06:12:07.804Z,97612.34
2019-01-09T06:14:55.239Z,97601.51
2019-01-09T06:17:42.811Z,97616.84
2019-01-09T06:20:32.759Z,97608.78
2019-01-09T06:23:19.795Z,97607.02
2019-01-09T06:26:07.191Z,97612.17
2019-01-09T06:28:54.385Z,97613.64
2019-01-09T06:31:41.564Z,97615.80
2019-01-09T06:34:29.019Z,97611.52
2019-01-09T06:37:16.236Z,97619.92
2019-01-09T06:40:03.829Z,97621.49
2019-01-09T06:42:51.289Z,97619.97
2019-01-09T06:45:38.388Z,97629.45
2019-01-09T06:48:25.578Z,97622.93
2019-01-09T06:51:12.782Z,97630.87
2019-01-09T06:54:00.106Z,97638.89
2019-01-09T06:56:47.247Z,97645.97
2019-01-09T06:59:34.382Z,97645.13
2019-01-09T07:02:21.422Z,97655.43
2019-01-09T07:05:09.073Z,97652.58
2019-01-09T07:07:56.217Z,97646.79
2019-01-09T07:10:43.241Z,97661.01
2019-01-09T07:13:30.304Z,97662.78
2019-01-09T07:16:17.861Z,97667.08
2019-01-09T07:19:04.899Z,97670.03
2019-01-09T07:21:51.964Z,97673.28
2019-01-09T07:24:39.326Z,97665.40
2019-01-09T07:27:26.508Z,97668.91
2019-01-09T07:30:13.912Z,97673.84
2019-01-09T07:33:01.045Z,97678.00
2019-01-09T07:35:48.249Z,97676.63
2019-01-09T07:38:35.612Z,97684.59
2019-01-09T07:41:22.631Z,97683.47
2019-01-09T07:44:09.804Z,97681.27
2019-01-09T07:46:57.383Z,97682.56
2019-01-09T07:49:44.506Z,97696.88
2019-01-09T07:52:31.653Z,97693.53
2019-01-09T07:55:18.388Z,97693.09
2019-01-09T07:58:05.572Z,97699.17
2019-01-09T08:00:53.285Z,97698.61
2019-01-09T08:03:40.803Z,97707.66
2019-01-09T08:06:28.247Z,97707.94
2019-01-09T08:09:15.143Z,97698.52
2019-01-09T08:12:02.585Z,97705.61
2019-01-09T08:14:49.705Z,97707.22
2019-01-09T08:17:37.091Z,97708.94
2019-01-09T08:20:24.444Z,97708.28
2019-01-09T08:23:11.795Z,97716.44
2019-01-09T08:25:59.226Z,97715.34
2019-01-09T08:28:46.691Z,97720.45
2019-01-09T08:31:34.078Z,97526.01
2019-01-09T08:34:21.184Z,97717.32
2019-01-09T08:37:08.575Z,97720.58
2019-01-09T08:39:55.441Z,97731.67
2019-01-09T08:42:42.631Z,97733.11
2019-01-09T08:45:29.712Z,97730.39
2019-01-09T08:48:17.084Z,97739.45
2019-01-09T08:51:04.564Z,97739.33
2019-01-09T08:53:51.635Z,97737.27
2019-01-09T08:56:39.084Z,97748.81
2019-01-09T08:59:26.282Z,97757.16
2019-01-09T09:02:13.059Z,97758.95
2019-01-09T09:05:00.152Z,97749.95
2019-01-09T09:07:50.280Z,97758.19
2019-01-09T09:10:37.611Z,97765.17
2019-01-09T09:13:36.562Z,97761.53
2019-01-09T09:16:23.645Z,97765.76
2019-01-09T09:19:10.809Z,97766.83
2019-01-09T09:21:57.902Z,97770.88
2019-01-09T09:24:45.095Z,97769.31
2019-01-09T09:27:32.404Z,97774.70
2019-01-09T09:30:20.032Z,97778.66
2019-01-09T09:33:07.187Z,97771.89
2019-01-09T09:35:54.331Z,97786.69
2019-01-09T09:38:41.690Z,97786.50
2019-01-09T09:41:28.953Z,97796.23
2019-01-09T09:44:16.018Z,97797.48
2019-01-09T09:47:03.388Z,97795.06
2019-01-09T09:49:50.485Z,97792.59
2019-01-09T09:52:37.580Z,97795.17
2019-01-09T09:55:24.745Z,97791.91
2019-01-09T09:58:12.053Z,97797.78
2019-01-09T10:00:58.875Z,97795.17
2019-01-09T10:03:45.747Z,97790.37
2019-01-09T10:06:32.803Z,97789.08
2019-01-09T10:09:19.878Z,97803.78
2019-01-09T10:12:07.144Z,97802.17
2019-01-09T10:14:54.358Z,97804.83
2019-01-09T10:17:41.483Z,97809.02
2019-01-09T10:20:28.663Z,97811.74
2019-01-09T10:23:16.120Z,97811.08
2019-01-09T10:26:03.297Z,97820.41
2019-01-09T10:28:50.072Z,97813.55
2019-01-09T10:31:37.413Z,97812.02
2019-01-09T10:34:24.394Z,97819.95
2019-01-09T10:37:11.899Z,97819.58
2019-01-09T10:39:58.962Z,97825.62
2019-01-09T10:42:46.310Z,97817.02
2019-01-09T10:45:33.501Z,97820.16
2019-01-09T10:48:20.576Z,97824.39
2019-01-09T10:51:07.848Z,97825.55
2019-01-09T10:53:55.178Z,97829.50
2019-01-09T10:56:42.268Z,97828.38
2019-01-09T10:59:30.016Z,97825.25
2019-01-09T11:02:17.181Z,97836.90
2019-01-09T11:05:04.498Z,97830.45
2019-01-09T11:07:51.756Z,97840.09
2019-01-09T11:10:38.964Z,97838.20
2019-01-09T11:13:26.317Z,97840.20
2019-01-09T11:16:13.719Z,97842.40
2019-01-09T11:19:00.803Z,97840.45
2019-01-09T11:21:47.891Z,97852.85
2019-01-09T11:24:35.168Z,97849.61
2019-01-09T11:27:22.346Z,97860.07
2019-01-09T11:30:15.210Z,97852.45
2019-01-09T11:33:02.250Z,97852.75
2019-01-09T11:35:49.578Z,97858.19
2019-01-09T11:38:37.006Z,97857.58
2019-01-09T11:41:24.349Z,97861.77
2019-01-09T11:44:12.252Z,97855.64
2019-01-09T11:46:59.542Z,97856.89
2019-01-09T11:49:46.402Z,97857.29
2019-01-09T11:52:33.538Z,97851.98
2019-01-09T11:55:20.960Z,97862.02
2019-01-09T11:58:08.054Z,97852.14
2019-01-09T12:00:55.625Z,97848.37
2019-01-09T12:03:42.696Z,97851.44
2019-01-09T12:06:29.807Z,97851.83
2019-01-09T12:09:17.199Z,97848.08
2019-01-09T12:12:04.479Z,97846.33
2019-01-09T12:14:51.536Z,97856.39
2019-01-09T12:17:38.746Z,97848.75
2019-01-09T12:20:25.780Z,97854.61
2019-01-09T12:23:12.959Z,97840.64
2019-01-09T12:26:00.063Z,97857.97
2019-01-09T12:31:35.784Z,97860.78
2019-01-09T12:31:56.783Z,97860.36
2019-01-09T12:34:23.165Z,97865.44
2019-01-09T12:37:10.305Z,97858.19
2019-01-09T12:39:57.465Z,97865.52
2019-01-09T12:42:44.844Z,97868.75
2019-01-09T12:45:32.276Z,97873.38
2019-01-09T12:48:19.536Z,97869.47
2019-01-09T12:51:06.819Z,97877.62
2019-01-09T12:53:53.949Z,97873.60
2019-01-09T12:56:40.863Z,97880.50
2019-01-09T12:59:27.941Z,97876.73
2019-01-09T13:02:15.310Z,97887.55
2019-01-09T13:05:02.472Z,97890.64
2019-01-09T13:07:49.830Z,97888.62
2019-01-09T13:10:37.137Z,97893.78
2019-01-09T13:13:23.955Z,97887.67
2019-01-09T13:16:11.084Z,97897.11
2019-01-09T13:18:58.118Z,97901.72
2019-01-09T13:21:44.954Z,97897.50
2019-01-09T13:24:31.903Z,97901.27
2019-01-09T13:27:19.312Z,97907.14
2019-01-09T13:30:09.479Z,97899.05
2019-01-09T13:32:56.773Z,97906.66
2019-01-09T13:35:44.093Z,97916.91
2019-01-09T13:38:30.865Z,97920.55
2019-01-09T13:41:18.329Z,97922.99
2019-01-09T13:44:06.176Z,97930.45
2019-01-09T13:46:53.765Z,97932.02
2019-01-09T13:49:40.927Z,97935.81
2019-01-09T13:52:28.340Z,97936.77
2019-01-09T13:55:16.887Z,97925.62
2019-01-09T13:58:04.048Z,97944.25
2019-01-09T14:00:51.210Z,97949.56
2019-01-09T14:03:38.128Z,97954.53
2019-01-09T14:06:25.457Z,97948.83
2019-01-09T14:09:12.587Z,97948.23
2019-01-09T14:11:59.705Z,97943.16
2019-01-09T14:14:47.038Z,97954.92
2019-01-09T14:17:33.942Z,97955.73
2019-01-09T14:20:21.201Z,97959.23
2019-01-09T14:23:08.322Z,97959.36
2019-01-09T14:25:55.812Z,97968.20
2019-01-09T14:28:43.167Z,97964.72
2019-01-09T14:31:30.543Z,97979.31
2019-01-09T14:34:18.016Z,97975.31
2019-01-09T14:37:05.145Z,97977.78
2019-01-09T14:39:51.994Z,97984.00
2019-01-09T14:42:39.210Z,97984.45
2019-01-09T14:45:26.204Z,97991.76
2019-01-09T14:48:13.556Z,97992.30
2019-01-09T14:51:00.793Z,98002.71
2019-01-09T14:53:48.290Z,98002.71
2019-01-09T14:56:35.197Z,98004.17
2019-01-09T14:59:22.534Z,98012.95
2019-01-09T15:02:10.113Z,98009.03
2019-01-09T15:04:57.240Z,98017.31
2019-01-09T15:07:44.513Z,98019.81
2019-01-09T15:10:31.884Z,98022.28
2019-01-09T15:13:19.373Z,98025.33
2019-01-09T15:16:07.202Z,98018.89
2019-01-09T15:18:54.538Z,98018.38
2019-01-09T15:21:42.017Z,98021.15
2019-01-09T15:24:29.194Z,98022.29
2019-01-09T15:27:16.094Z,98030.25
2019-01-09T15:30:06.660Z,98023.38
2019-01-09T15:32:54.275Z,98032.06
2019-01-09T15:35:41.662Z,98026.38
2019-01-09T15:38:28.846Z,98034.05
2019-01-09T15:41:16.080Z,98045.39
2019-01-09T15:44:03.236Z,98046.38
2019-01-09T15:46:50.615Z,98055.13
2019-01-09T15:49:37.795Z,98060.99
2019-01-09T15:52:24.870Z,98064.77
2019-01-09T15:55:14.179Z,98069.48
2019-01-09T15:58:01.601Z,97866.61
2019-01-09T16:00:49.014Z,98065.60
2019-01-09T16:03:36.309Z,98074.04
2019-01-09T16:06:23.155Z,98080.33
2019-01-09T16:09:10.452Z,98078.30
2019-01-09T16:11:57.278Z,98077.95
2019-01-09T16:14:44.642Z,98073.09
2019-01-09T16:17:31.901Z,98081.00
2019-01-09T16:20:23.206Z,98082.38
2019-01-09T16:23:10.036Z,98086.70
2019-01-09T16:25:56.848Z,98087.87
2019-01-09T16:28:44.289Z,98089.38
2019-01-09T16:31:31.699Z,98081.25
2019-01-09T16:34:18.634Z,98084.80
2019-01-09T16:37:05.952Z,98079.45
2019-01-09T16:39:53.292Z,98088.06
2019-01-09T16:42:40.697Z,98092.67
2019-01-09T16:45:27.871Z,98095.48
2019-01-09T16:48:14.926Z,98097.47
2019-01-09T16:51:02.177Z,98100.12
2019-01-09T16:53:49.667Z,98106.38
2019-01-09T16:56:36.855Z,98107.92
2019-01-09T16:59:24.388Z,98107.33
2019-01-09T17:02:11.664Z,98113.47
2019-01-09T17:04:59.160Z,98115.47
2019-01-09T17:07:46.530Z,98108.53
2019-01-09T17:10:33.792Z,98119.41
2019-01-09T17:13:21.354Z,98118.77
2019-01-09T17:16:08.427Z,98120.17
2019-01-09T17:18:56.008Z,98125.27
2019-01-09T17:21:43.353Z,98129.38
2019-01-09T17:24:30.539Z,98132.84
2019-01-09T17:27:17.871Z,98134.57
2019-01-09T17:30:08.092Z,98145.72
2019-01-09T17:32:55.542Z,98144.70
2019-01-09T17:35:43.039Z,98145.70
2019-01-09T17:38:30.451Z,98142.78
2019-01-09T17:41:17.676Z,98147.42
2019-01-09T17:44:04.920Z,98153.30
2019-01-09T17:46:52.230Z,98164.87
2019-01-09T17:49:39.460Z,98169.09
2019-01-09T17:52:26.659Z,98161.18
2019-01-09T17:55:13.994Z,98169.33
2019-01-09T17:58:02.830Z,98164.95
2019-01-09T18:00:50.233Z,98173.16
2019-01-09T18:03:37.183Z,98173.34
2019-01-09T18:06:24.354Z,98180.05
2019-01-09T18:09:11.746Z,98189.11
2019-01-09T18:11:59.270Z,98188.29
2019-01-09T18:14:46.791Z,98191.56
2019-01-09T18:17:34.004Z,98194.95
2019-01-09T18:20:22.849Z,98199.53
2019-01-09T18:23:11.347Z,98193.91
2019-01-09T18:25:58.696Z,98199.92
2019-01-09T18:28:46.605Z,98203.37
2019-01-09T18:31:46.031Z,98213.55
2019-01-09T18:34:33.299Z,98211.48
2019-01-09T18:37:35.301Z,98211.17
2019-01-09T18:40:34.335Z,98211.19
2019-01-09T18:43:30.637Z,98215.55
2019-01-09T18:46:26.822Z,98221.83
2019-01-09T18:49:26.507Z,98226.20
2019-01-09T18:52:35.225Z,98230.48
2019-01-09T18:55:22.673Z,98235.51
2019-01-09T18:58:09.860Z,98241.13
2019-01-09T19:00:57.050Z,98241.45
2019-01-09T19:03:44.137Z,98249.04
2019-01-09T19:06:35.443Z,98255.66
2019-01-09T19:09:20.919Z,98262.95
2019-01-09T19:12:08.086Z,98268.72
2019-01-09T19:14:55.337Z,98267.08
2019-01-09T19:17:42.484Z,98272.50
2019-01-09T19:20:29.932Z,98286.97
2019-01-09T19:23:17.084Z,98289.86
2019-01-09T19:26:04.660Z,98296.32
2019-01-09T19:28:51.755Z,98292.13
2019-01-09T19:31:39.039Z,98296.49
2019-01-09T19:34:26.365Z,98296.56
2019-01-09T19:37:13.617Z,98295.00
2019-01-09T19:40:00.824Z,98305.38
2019-01-09T19:42:47.922Z,98310.14
2019-01-09T19:45:35.051Z,98318.02
2019-01-09T19:48:22.448Z,98309.56
2019-01-09T19:51:17.325Z,98315.27
2019-01-09T19:53:58.663Z,98317.66
2019-01-09T19:56:45.914Z,98321.61
2019-01-09T19:59:32.888Z,98313.29
2019-01-09T20:02:20.101Z,98324.16
2019-01-09T20:05:07.451Z,98321.67
2019-01-09T20:07:54.897Z,98332.37
2019-01-09T20:10:42.100Z,98331.02
2019-01-09T20:13:29.705Z,98336.79
2019-01-09T20:16:17.056Z,98333.19
2019-01-09T20:19:04.961Z,98332.69
2019-01-09T20:21:52.253Z,98333.48
2019-01-09T20:24:39.679Z,98343.70
2019-01-09T20:27:26.645Z,98333.45
2019-01-09T20:30:25.411Z,98343.09
2019-01-09T20:33:12.900Z,98349.20
2019-01-09T20:36:00.103Z,98349.23
2019-01-09T20:38:47.374Z,98346.54
2019-01-09T20:41:35.699Z,98349.95
2019-01-09T20:44:23.346Z,98356.75
2019-01-09T20:47:10.982Z,98351.55
2019-01-09T20:49:58.159Z,98352.33
2019-01-09T20:52:45.889Z,98353.06
2019-01-09T20:55:33.561Z,98346.65
2019-01-09T20:58:21.254Z,98360.70
2019-01-09T21:01:08.848Z,98356.19
2019-01-09T21:03:56.378Z,98366.42
2019-01-09T21:06:43.737Z,98367.98
2019-01-09T21:09:30.914Z,98374.58
2019-01-09T21:12:18.089Z,98369.16
2019-01-09T21:15:08.370Z,98381.88
2019-01-09T21:17:57.445Z,98384.56
2019-01-09T21:20:44.946Z,98386.88
2019-01-09T21:23:32.177Z,98384.65
2019-01-09T21:26:19.746Z,98382.09
2019-01-09T21:29:06.954Z,98389.67
2019-01-09T21:31:54.531Z,98375.91
2019-01-09T21:34:41.901Z,98381.75
2019-01-09T21:37:29.191Z,98393.40
2019-01-09T21:40:27.449Z,98391.64
2019-01-09T21:43:15.004Z,98395.34
2019-01-09T21:46:02.062Z,98396.09
2019-01-09T21:48:49.154Z,98399.64
2019-01-09T21:51:36.265Z,98417.53
2019-01-09T21:54:23.700Z,98411.51
2019-01-09T21:57:10.783Z,98416.43
2019-01-09T21:59:57.836Z,98420.28
2019-01-09T22:02:45.357Z,98416.58
2019-01-09T22:05:32.668Z,98417.77
2019-01-09T22:08:19.930Z,98421.53
2019-01-09T22:11:07.188Z,98424.20
2019-01-09T22:13:54.468Z,98428.41
2019-01-09T22:16:41.829Z,98435.56
2019-01-09T22:19:29.031Z,98435.42
2019-01-09T22:22:16.431Z,98440.43
2019-01-09T22:25:03.392Z,98441.19
2019-01-09T22:27:50.954Z,98443.13
2019-01-09T22:30:38.203Z,98440.94
2019-01-09T22:33:25.793Z,98446.50
2019-01-09T22:36:13.974Z,98454.43
2019-01-09T22:39:01.305Z,98456.91
2019-01-09T22:41:48.521Z,98449.72
2019-01-09T22:44:36.160Z,98457.41
2019-01-09T22:47:24.036Z,98455.48
2019-01-09T22:50:16.588Z,98460.01
2019-01-09T22:53:03.704Z,98469.56
2019-01-09T22:55:51.102Z,98472.94
2019-01-09T22:58:38.230Z,98479.59
2019-01-09T23:01:25.662Z,98476.59
2019-01-09T23:04:12.809Z,98475.59
2019-01-09T23:07:00.251Z,98478.71
2019-01-09T23:09:47.904Z,98481.31
2019-01-09T23:12:35.068Z,98478.69
2019-01-09T23:15:22.214Z,98479.73
2019-01-09T23:18:09.381Z,98474.56
2019-01-09T23:20:56.217Z,98477.77
2019-01-09T23:23:43.612Z,98484.37
2019-01-09T23:26:32.193Z,98491.62
2019-01-09T23:29:19.422Z,98486.34
2019-01-09T23:32:06.553Z,98487.36
2019-01-09T23:34:54.089Z,98489.59
2019-01-09T23:37:41.327Z,98491.33
2019-01-09T23:40:28.798Z,98498.48
2019-01-09T23:43:16.377Z,98505.70
2019-01-09T23:46:03.989Z,98507.80
2019-01-09T23:48:51.516Z,98508.12
2019-01-09T23:51:38.381Z,98513.53
2019-01-09T23:54:25.966Z,98518.30
2019-01-09T23:57:13.052Z,98509.05
